Folie A Deux — WDD2259 — position and weather

sailwx.info

Track history (hours):
 
Tides and Currents Weather Stations Pressure Air Temp Water Temp Dewpoint Dewpoint Depression Visibility Wind Speed Wind Dir Waves Ship Positions

Folie A Deux

Owner: Burnett, John L, San Francisco, CA. More information available from US FCC via Universal Licensing System and Coast Guard Vessel Documentation Center.

Last reported at 2018-May-28 18:33 UTC. Time now 2018-Jun-22 00:00 UTC.
Position N 41°13' W 072°23'.
Warning: this ship's position is 24 days out of date.

Length 14 m.

Type: Sailing vessel. MMSI: 367113020.

Date/timePositionNaut miles runAvg speedWind from/ knotsBaromVisibWave heightAir tempDewpointWater temp
2018-May-28 18:33N 41°13' W 072°23'0 8.0
2018-May-28 18:30N 41°13' W 072°23'4 8.2
2018-May-28 18:00N 41°12' W 072°29'  
2018-May-26 09:56N 40°41' W 074°00'107 2.5
2018-May-24 14:32N 39°12' W 075°16'0 6.1
2018-May-24 14:28N 39°12' W 075°16'3 6.6
2018-May-24 13:57N 39°15' W 075°19'3 6.6
2018-May-24 13:27N 39°17' W 075°22'19 4.4
2018-May-24 09:00N 39°33' W 075°36'3 6.4
2018-May-24 08:30N 39°33' W 075°40'4 7.0
2018-May-24 08:00N 39°32' W 075°44'3 6.7
2018-May-24 07:30N 39°32' W 075°49'44 2.2
2018-May-23 11:33N 38°58' W 076°25'1 5.8
2018-May-23 11:22N 38°58' W 076°26'  
2018-May-20 17:46N 38°58' W 076°28'2 5.5
2018-May-20 17:23N 38°57' W 076°26'2 5.7
2018-May-20 17:00N 38°54' W 076°25'3 4.9
2018-May-20 16:27N 38°52' W 076°25'  
Track history (hours):
 
Tides and Currents Weather Stations Pressure Air Temp Water Temp Dewpoint Dewpoint Depression Visibility Wind Speed Wind Dir Waves Ship Positions

Folie A Deux

Owner: Burnett, John L, San Francisco, CA. More information available from US FCC via Universal Licensing System and Coast Guard Vessel Documentation Center.

Last reported at 2018-May-28 18:33 UTC. Time now 2018-Jun-22 00:00 UTC.
Position N 41°13' W 072°23'.
Warning: this ship's position is 24 days out of date.

Length 14 m.

Type: Sailing vessel. MMSI: 367113020.

Date/timePositionNaut miles runAvg speedWind from/ knotsBaromVisibWave heightAir tempDewpointWater temp
2018-May-28 18:33N 41°13' W 072°23'0 8.0
2018-May-28 18:30N 41°13' W 072°23'4 8.2
2018-May-28 18:00N 41°12' W 072°29'  
2018-May-26 09:56N 40°41' W 074°00'107 2.5
2018-May-24 14:32N 39°12' W 075°16'0 6.1
2018-May-24 14:28N 39°12' W 075°16'3 6.6
2018-May-24 13:57N 39°15' W 075°19'3 6.6
2018-May-24 13:27N 39°17' W 075°22'19 4.4
2018-May-24 09:00N 39°33' W 075°36'3 6.4
2018-May-24 08:30N 39°33' W 075°40'4 7.0
2018-May-24 08:00N 39°32' W 075°44'3 6.7
2018-May-24 07:30N 39°32' W 075°49'44 2.2
2018-May-23 11:33N 38°58' W 076°25'1 5.8
2018-May-23 11:22N 38°58' W 076°26'  
2018-May-20 17:46N 38°58' W 076°28'2 5.5
2018-May-20 17:23N 38°57' W 076°26'2 5.7
2018-May-20 17:00N 38°54' W 076°25'3 4.9
2018-May-20 16:27N 38°52' W 076°25'  

Dump ship's entire track history